• Join FlightAware (Why Join?)
  • Login
  • US Flag 
07:42PM EDT


 

Airport Tracker/Info


-or-


 

Live Flight TrackerFlight Track Log ✈ ELJ95 ✈ 01-May-2012 ✈ KLWB - KTYS

Flight Track Log - Related Links

Times and Time Zones

All times are in EDT time to prevent confusion due to time zone crossing. See the ELJ95 flight status page for this flight to view local times or setup timezone preferences in your user account.

Time Position Orientation Groundspeed Altitude Reporting Facility
EDT Latitude Longitude Course Direction KTS MPH feet Rate Location/Type
05:09PM 37.8125 -80.4392 213° Southwest 443 510 5,100  Level Washington Center
05:10PM 37.7628 -80.4806 219° Southwest 339 390 8,300 3,660 Climbing Washington Center
05:11PM 37.7042 -80.5397 247° West 296 341 12,400 3,360 Climbing Washington Center
05:14PM 37.6281 -80.7694 252° West 296 341 19,400 2,340 Climbing Indianapolis Center
05:15PM 37.5975 -80.8886 253° West 332 382 20,000 840 Climbing Indianapolis Center
05:17PM 37.5342 -81.1447 254° West 400 460 22,000 660 Climbing Indianapolis Center
05:18PM 37.5036 -81.2819 243° Southwest 405 466 22,000  Level Indianapolis Center
05:19PM 37.4517 -81.4092 232° Southwest 405 466 22,000  Level Indianapolis Center
05:20PM 37.3828 -81.5183 233° Southwest 412 474 22,000  Level Indianapolis Center
05:22PM 37.2442 -81.7472 233° Southwest 410 472 22,000  Level Atlanta Center
05:23PM 37.1753 -81.8611 232° Southwest 410 472 22,000  Level Atlanta Center
05:24PM 37.1086 -81.9697 233° Southwest 410 472 22,000  Level Atlanta Center
05:25PM 37.0394 -82.0833 233° Southwest 410 472 22,000  Level Atlanta Center
05:26PM 36.9783 -82.1836 233° Southwest 410 472 22,000  Level Atlanta Center
05:27PM 36.9114 -82.2942 233° Southwest 404 465 22,000  Level Atlanta Center
05:28PM 36.8419 -82.4072 231° Southwest 409 471 22,000  Level Atlanta Center
05:29PM 36.7725 -82.5150 233° Southwest 404 465 22,000  Level Atlanta Center
05:30PM 36.7050 -82.6250 233° Southwest 404 465 22,000 -840 Level Atlanta Center
05:31PM 36.6375 -82.7375 231° Southwest 404 465 20,400 -1,740 Descending Atlanta Center
05:32PM 36.5697 -82.8419 233° Southwest 404 465 18,600 -1,860 Descending Atlanta Center
05:33PM 36.4978 -82.9592 232° Southwest 399 459 16,800 -1,800 Descending Atlanta Center
05:34PM 36.4339 -83.0608 233° Southwest 394 453 15,000 -1,740 Descending Atlanta Center
05:35PM 36.3764 -83.1542 232° Southwest 371 427 13,400 -1,620 Descending Atlanta Center
05:36PM 36.3164 -83.2503 231° Southwest 358 412 11,900 -1,200 Descending Atlanta Center
05:37PM 36.2544 -83.3461 233° Southwest 358 412 11,000 -660 Descending Atlanta Center
05:38PM 36.2008 -83.4342 231° Southwest 346 398 10,600 -780 Descending Atlanta Center
05:39PM 36.1553 -83.5039 233° Southwest 295 339 9,500 -1,500 Descending Atlanta Center
05:40PM 36.1178 -83.5658 234° Southwest 265 305 7,700 -1,920 Descending Atlanta Center
05:41PM 36.0786 -83.6328 230° Southwest 255 293 5,700 -1,860 Descending Atlanta Center
05:42PM 36.0347 -83.6972 232° Southwest 255 293 4,000 -900 Descending Atlanta Center
05:43PM 35.9933 -83.7617 231° Southwest 250 288 4,000 -180 Level Atlanta Center
05:44PM 35.9517 -83.8258 231° Southwest 255 293 3,700 -360 Descending Atlanta Center